sensor_id;sensor_type;location;lat;lon;timestamp;pressure;altitude;pressure_sealevel;temperature;humidity
8653;BME280;4364;52.426;9.424;2023-01-24T00:00:42;103447.59;;;0.87;100.00
8653;BME280;4364;52.426;9.424;2023-01-24T00:03:09;103446.91;;;0.95;100.00
8653;BME280;4364;52.426;9.424;2023-01-24T00:05:39;103443.09;;;0.97;100.00
8653;BME280;4364;52.426;9.424;2023-01-24T00:08:06;103442.84;;;0.90;100.00
8653;BME280;4364;52.426;9.424;2023-01-24T00:10:33;103443.94;;;0.98;100.00
8653;BME280;4364;52.426;9.424;2023-01-24T00:12:59;103443.75;;;1.09;100.00
8653;BME280;4364;52.426;9.424;2023-01-24T00:15:26;103454.09;;;0.94;100.00
8653;BME280;4364;52.426;9.424;2023-01-24T00:17:52;103443.94;;;0.98;100.00
8653;BME280;4364;52.426;9.424;2023-01-24T00:20:19;103446.16;;;1.12;100.00
8653;BME280;4364;52.426;9.424;2023-01-24T00:22:45;103446.97;;;1.13;100.00
8653;BME280;4364;52.426;9.424;2023-01-24T00:25:12;103449.84;;;1.01;100.00
8653;BME280;4364;52.426;9.424;2023-01-24T00:27:39;103449.28;;;0.98;100.00
8653;BME280;4364;52.426;9.424;2023-01-24T00:30:06;103447.00;;;1.03;100.00
8653;BME280;4364;52.426;9.424;2023-01-24T00:32:33;103447.72;;;0.95;100.00
8653;BME280;4364;52.426;9.424;2023-01-24T00:34:59;103443.09;;;0.97;100.00
8653;BME280;4364;52.426;9.424;2023-01-24T00:37:27;103439.13;;;1.01;100.00
8653;BME280;4364;52.426;9.424;2023-01-24T00:39:53;103439.94;;;1.02;100.00
8653;BME280;4364;52.426;9.424;2023-01-24T00:42:20;103443.63;;;1.01;100.00
8653;BME280;4364;52.426;9.424;2023-01-24T00:44:46;103431.97;;;0.92;100.00
8653;BME280;4364;52.426;9.424;2023-01-24T00:47:13;103421.34;;;1.00;100.00
8653;BME280;4364;52.426;9.424;2023-01-24T00:49:40;103432.41;;;0.87;100.00
8653;BME280;4364;52.426;9.424;2023-01-24T00:52:06;103433.34;;;0.96;100.00
8653;BME280;4364;52.426;9.424;2023-01-24T00:54:34;103426.16;;;0.97;100.00
8653;BME280;4364;52.426;9.424;2023-01-24T00:57:01;103438.00;;;1.04;100.00
8653;BME280;4364;52.426;9.424;2023-01-24T00:59:28;103439.94;;;1.02;100.00
8653;BME280;4364;52.426;9.424;2023-01-24T01:01:54;103436.44;;;1.01;100.00
8653;BME280;4364;52.426;9.424;2023-01-24T01:04:20;103431.19;;;1.09;100.00
8653;BME280;4364;52.426;9.424;2023-01-24T01:06:47;103419.22;;;1.04;100.00
8653;BME280;4364;52.426;9.424;2023-01-24T01:09:13;103423.72;;;1.03;100.00
8653;BME280;4364;52.426;9.424;2023-01-24T01:11:40;103427.84;;;0.98;100.00
8653;BME280;4364;52.426;9.424;2023-01-24T01:14:09;103432.06;;;1.00;100.00
8653;BME280;4364;52.426;9.424;2023-01-24T01:16:35;103432.63;;;1.04;100.00
8653;BME280;4364;52.426;9.424;2023-01-24T01:19:05;103427.00;;;0.97;100.00
8653;BME280;4364;52.426;9.424;2023-01-24T01:21:32;103428.41;;;1.01;100.00
8653;BME280;4364;52.426;9.424;2023-01-24T01:23:58;103434.84;;;1.08;100.00
8653;BME280;4364;52.426;9.424;2023-01-24T01:26:24;103430.78;;;1.04;100.00
8653;BME280;4364;52.426;9.424;2023-01-24T01:28:51;103432.06;;;1.00;100.00
8653;BME280;4364;52.426;9.424;2023-01-24T01:31:17;103432.03;;;1.10;100.00
8653;BME280;4364;52.426;9.424;2023-01-24T01:33:45;103427.81;;;1.07;100.00
8653;BME280;4364;52.426;9.424;2023-01-24T01:36:12;103435.72;;;1.09;100.00
8653;BME280;4364;52.426;9.424;2023-01-24T01:38:38;103440.53;;;1.05;100.00
8653;BME280;4364;52.426;9.424;2023-01-24T01:41:05;103430.22;;;1.10;100.00
8653;BME280;4364;52.426;9.424;2023-01-24T01:43:31;103436.44;;;1.01;100.00
8653;BME280;4364;52.426;9.424;2023-01-24T01:46:18;103436.44;;;1.01;100.00
8653;BME280;4364;52.426;9.424;2023-01-24T01:48:51;103426.25;;;1.05;100.00
8653;BME280;4364;52.426;9.424;2023-01-24T01:53:52;103430.22;;;1.10;100.00
8653;BME280;4364;52.426;9.424;2023-01-24T01:56:26;103434.38;;;1.23;100.00
8653;BME280;4364;52.426;9.424;2023-01-24T01:58:57;103426.66;;;1.10;100.00
8653;BME280;4364;52.426;9.424;2023-01-24T02:01:26;103417.25;;;1.06;100.00
8653;BME280;4364;52.426;9.424;2023-01-24T02:04:13;103420.19;;;1.13;100.00
8653;BME280;4364;52.426;9.424;2023-01-24T02:06:54;103420.22;;;1.03;100.00
8653;BME280;4364;52.426;9.424;2023-01-24T02:09:26;103425.00;;;1.09;100.00
8653;BME280;4364;52.426;9.424;2023-01-24T02:11:58;103418.63;;;1.10;99.94
8653;BME280;4364;52.426;9.424;2023-01-24T02:14:27;103422.28;;;1.19;99.81
8653;BME280;4364;52.426;9.424;2023-01-24T02:17:18;103425.44;;;1.04;100.00
8653;BME280;4364;52.426;9.424;2023-01-24T02:22:23;103430.25;;;1.01;100.00
8653;BME280;4364;52.426;9.424;2023-01-24T02:24:59;103430.09;;;1.02;100.00
8653;BME280;4364;52.426;9.424;2023-01-24T02:27:27;103425.56;;;1.03;100.00
8653;BME280;4364;52.426;9.424;2023-01-24T02:29:55;103421.50;;;0.99;100.00
8653;BME280;4364;52.426;9.424;2023-01-24T02:32:22;103418.66;;;1.00;100.00
8653;BME280;4364;52.426;9.424;2023-01-24T02:34:49;103414.84;;;1.03;100.00
8653;BME280;4364;52.426;9.424;2023-01-24T02:37:19;103420.31;;;1.11;99.88
8653;BME280;4364;52.426;9.424;2023-01-24T02:39:59;103417.34;;;1.14;99.39
8653;BME280;4364;52.426;9.424;2023-01-24T02:42:32;103420.88;;;1.15;98.12
8653;BME280;4364;52.426;9.424;2023-01-24T02:45:08;103406.78;;;1.13;98.67
8653;BME280;4364;52.426;9.424;2023-01-24T02:47:45;103419.63;;;1.09;98.68
8653;BME280;4364;52.426;9.424;2023-01-24T02:50:13;103415.94;;;1.10;98.39
8653;BME280;4364;52.426;9.424;2023-01-24T02:52:40;103417.75;;;1.19;98.18
8653;BME280;4364;52.426;9.424;2023-01-24T02:55:25;103402.84;;;1.07;98.38
8653;BME280;4364;52.426;9.424;2023-01-24T02:57:54;103402.00;;;1.06;97.90
8653;BME280;4364;52.426;9.424;2023-01-24T03:00:38;103410.03;;;1.06;97.53
8653;BME280;4364;52.426;9.424;2023-01-24T03:03:06;103403.56;;;1.09;97.29
8653;BME280;4364;52.426;9.424;2023-01-24T03:05:33;103404.81;;;1.05;96.76
8653;BME280;4364;52.426;9.424;2023-01-24T03:08:15;103400.59;;;1.12;96.38
8653;BME280;4364;52.426;9.424;2023-01-24T03:10:42;103392.97;;;1.07;96.88
8653;BME280;4364;52.426;9.424;2023-01-24T03:13:09;103401.16;;;1.06;97.06
8653;BME280;4364;52.426;9.424;2023-01-24T03:15:54;103398.75;;;1.13;97.60
8653;BME280;4364;52.426;9.424;2023-01-24T03:18:40;103394.66;;;1.08;97.47
8653;BME280;4364;52.426;9.424;2023-01-24T03:21:26;103404.50;;;1.18;96.90
8653;BME280;4364;52.426;9.424;2023-01-24T03:24:11;103393.22;;;1.14;96.13
8653;BME280;4364;52.426;9.424;2023-01-24T03:26:56;103395.78;;;1.16;96.41
8653;BME280;4364;52.426;9.424;2023-01-24T03:29:42;103386.47;;;1.10;96.37
8653;BME280;4364;52.426;9.424;2023-01-24T03:32:27;103401.28;;;1.14;95.83
8653;BME280;4364;52.426;9.424;2023-01-24T03:35:13;103395.47;;;1.19;95.94
8653;BME280;4364;52.426;9.424;2023-01-24T03:37:39;103403.91;;;1.24;93.33
8653;BME280;4364;52.426;9.424;2023-01-24T03:40:27;103410.56;;;1.20;93.25
8653;BME280;4364;52.426;9.424;2023-01-24T03:42:54;103398.84;;;1.21;93.42
8653;BME280;4364;52.426;9.424;2023-01-24T03:45:29;103405.28;;;1.28;92.49
8653;BME280;4364;52.426;9.424;2023-01-24T03:47:58;103412.53;;;1.18;93.47
8653;BME280;4364;52.426;9.424;2023-01-24T03:50:30;103410.66;;;1.28;93.41
8653;BME280;4364;52.426;9.424;2023-01-24T03:53:16;103412.00;;;1.14;93.09
8653;BME280;4364;52.426;9.424;2023-01-24T03:55:46;103418.59;;;1.20;92.86
8653;BME280;4364;52.426;9.424;2023-01-24T03:58:13;103413.91;;;1.22;92.48
8653;BME280;4364;52.426;9.424;2023-01-24T04:00:40;103414.75;;;1.32;90.88
8653;BME280;4364;52.426;9.424;2023-01-24T04:03:23;103411.88;;;1.34;90.44
8653;BME280;4364;52.426;9.424;2023-01-24T04:05:50;103414.88;;;1.31;90.13
8653;BME280;4364;52.426;9.424;2023-01-24T04:08:18;103421.38;;;1.28;90.44
8653;BME280;4364;52.426;9.424;2023-01-24T04:10:46;103408.25;;;1.25;90.92
8653;BME280;4364;52.426;9.424;2023-01-24T04:13:13;103412.59;;;1.36;90.31
8653;BME280;4364;52.426;9.424;2023-01-24T04:15:40;103413.72;;;1.33;90.26
8653;BME280;4364;52.426;9.424;2023-01-24T04:18:27;103418.13;;;1.34;90.09
8653;BME280;4364;52.426;9.424;2023-01-24T04:20:55;103415.91;;;1.20;90.82
8653;BME280;4364;52.426;9.424;2023-01-24T04:23:23;103417.06;;;1.17;91.12
8653;BME280;4364;52.426;9.424;2023-01-24T04:25:50;103415.91;;;1.20;91.49
8653;BME280;4364;52.426;9.424;2023-01-24T04:28:24;103410.16;;;1.15;91.98
8653;BME280;4364;52.426;9.424;2023-01-24T04:30:58;103415.63;;;1.23;91.45
8653;BME280;4364;52.426;9.424;2023-01-24T04:33:46;103398.66;;;1.32;91.50
8653;BME280;4364;52.426;9.424;2023-01-24T04:36:13;103397.50;;;1.35;91.48
8653;BME280;4364;52.426;9.424;2023-01-24T04:38:41;103403.31;;;1.30;89.63
8653;BME280;4364;52.426;9.424;2023-01-24T04:41:14;103416.16;;;1.26;90.44
8653;BME280;4364;52.426;9.424;2023-01-24T04:43:42;103405.59;;;1.25;91.18
8653;BME280;4364;52.426;9.424;2023-01-24T04:46:09;103419.13;;;1.23;91.07
8653;BME280;4364;52.426;9.424;2023-01-24T04:48:50;103423.13;;;1.19;91.37
8653;BME280;4364;52.426;9.424;2023-01-24T04:51:16;103421.38;;;1.28;90.07
8653;BME280;4364;52.426;9.424;2023-01-24T04:53:44;103416.13;;;1.36;89.40
8653;BME280;4364;52.426;9.424;2023-01-24T04:56:13;103411.06;;;1.33;89.17
8653;BME280;4364;52.426;9.424;2023-01-24T04:58:40;103424.97;;;1.19;89.89
8653;BME280;4364;52.426;9.424;2023-01-24T05:01:07;103431.31;;;1.18;90.23
8653;BME280;4364;52.426;9.424;2023-01-24T05:03:42;103428.59;;;1.27;90.22
8653;BME280;4364;52.426;9.424;2023-01-24T05:06:09;103435.06;;;1.25;89.85
8653;BME280;4364;52.426;9.424;2023-01-24T05:08:36;103428.06;;;1.14;89.60
8653;BME280;4364;52.426;9.424;2023-01-24T05:11:03;103428.88;;;1.24;89.39
8653;BME280;4364;52.426;9.424;2023-01-24T05:13:35;103434.41;;;1.13;89.75
8653;BME280;4364;52.426;9.424;2023-01-24T05:16:02;103427.53;;;1.10;89.74
8653;BME280;4364;52.426;9.424;2023-01-24T05:18:30;103427.06;;;1.15;90.04
8653;BME280;4364;52.426;9.424;2023-01-24T05:21:04;103429.72;;;1.25;89.57
8653;BME280;4364;52.426;9.424;2023-01-24T05:23:31;103432.41;;;1.25;89.11
8653;BME280;4364;52.426;9.424;2023-01-24T05:25:58;103436.09;;;1.24;89.33
8653;BME280;4364;52.426;9.424;2023-01-24T05:28:25;103431.88;;;1.11;89.59
8653;BME280;4364;52.426;9.424;2023-01-24T05:31:04;103431.88;;;1.11;90.12
8653;BME280;4364;52.426;9.424;2023-01-24T05:33:31;103427.53;;;1.10;90.47
8653;BME280;4364;52.426;9.424;2023-01-24T05:36:18;103424.00;;;1.10;90.58
8653;BME280;4364;52.426;9.424;2023-01-24T05:38:46;103429.06;;;1.13;90.50
8653;BME280;4364;52.426;9.424;2023-01-24T05:41:17;103432.75;;;1.12;90.42
8653;BME280;4364;52.426;9.424;2023-01-24T05:43:45;103432.91;;;1.10;89.58
8653;BME280;4364;52.426;9.424;2023-01-24T05:46:17;103431.19;;;1.09;89.42
8653;BME280;4364;52.426;9.424;2023-01-24T05:48:55;103434.78;;;1.28;88.25
8653;BME280;4364;52.426;9.424;2023-01-24T05:51:22;103433.69;;;1.21;87.78
8653;BME280;4364;52.426;9.424;2023-01-24T05:53:48;103440.69;;;1.32;86.76
8653;BME280;4364;52.426;9.424;2023-01-24T05:56:35;103445.09;;;1.23;87.84
8653;BME280;4364;52.426;9.424;2023-01-24T05:59:01;103458.66;;;1.21;87.46
8653;BME280;4364;52.426;9.424;2023-01-24T06:01:28;103445.81;;;1.15;87.70
8653;BME280;4364;52.426;9.424;2023-01-24T06:03:56;103454.06;;;1.04;88.14
8653;BME280;4364;52.426;9.424;2023-01-24T06:06:24;103458.72;;;1.02;88.43
8653;BME280;4364;52.426;9.424;2023-01-24T06:08:51;103452.50;;;1.11;88.56
8653;BME280;4364;52.426;9.424;2023-01-24T06:11:23;103454.63;;;1.07;87.79
8653;BME280;4364;52.426;9.424;2023-01-24T06:14:02;103454.34;;;1.01;88.17
8653;BME280;4364;52.426;9.424;2023-01-24T06:16:29;103451.81;;;0.99;88.90
8653;BME280;4364;52.426;9.424;2023-01-24T06:18:56;103464.34;;;1.08;88.25
8653;BME280;4364;52.426;9.424;2023-01-24T06:24:03;103458.28;;;1.06;88.13
8653;BME280;4364;52.426;9.424;2023-01-24T06:26:45;103455.88;;;1.03;88.25
8653;BME280;4364;52.426;9.424;2023-01-24T06:29:12;103460.78;;;1.18;87.73
8653;BME280;4364;52.426;9.424;2023-01-24T06:31:57;103462.13;;;1.04;88.10
8653;BME280;4364;52.426;9.424;2023-01-24T06:37:14;103473.94;;;1.11;87.98
8653;BME280;4364;52.426;9.424;2023-01-24T06:39:49;103468.81;;;1.18;87.03
8653;BME280;4364;52.426;9.424;2023-01-24T06:42:21;103465.59;;;1.14;86.66
8653;BME280;4364;52.426;9.424;2023-01-24T06:44:49;103473.94;;;1.01;87.23
8653;BME280;4364;52.426;9.424;2023-01-24T06:47:16;103491.31;;;0.97;88.40
8653;BME280;4364;52.426;9.424;2023-01-24T06:49:43;103480.88;;;1.04;88.17
8653;BME280;4364;52.426;9.424;2023-01-24T06:52:09;103479.16;;;1.13;87.61
8653;BME280;4364;52.426;9.424;2023-01-24T06:54:37;103485.66;;;1.00;87.65
8653;BME280;4364;52.426;9.424;2023-01-24T06:57:04;103486.66;;;0.99;88.56
8653;BME280;4364;52.426;9.424;2023-01-24T06:59:30;103489.75;;;1.04;88.11
8653;BME280;4364;52.426;9.424;2023-01-24T07:01:57;103492.97;;;1.08;88.62
8653;BME280;4364;52.426;9.424;2023-01-24T07:04:24;103481.69;;;1.14;88.08
8653;BME280;4364;52.426;9.424;2023-01-24T07:06:50;103495.50;;;1.19;86.73
8653;BME280;4364;52.426;9.424;2023-01-24T07:09:20;103499.50;;;1.05;87.17
8653;BME280;4364;52.426;9.424;2023-01-24T07:11:47;103499.66;;;0.94;87.53
8653;BME280;4364;52.426;9.424;2023-01-24T07:14:15;103510.09;;;0.97;87.91
8653;BME280;4364;52.426;9.424;2023-01-24T07:16:42;103497.81;;;0.95;88.29
8653;BME280;4364;52.426;9.424;2023-01-24T07:19:13;103503.72;;;0.98;88.39
8653;BME280;4364;52.426;9.424;2023-01-24T07:21:40;103487.63;;;1.08;88.19
8653;BME280;4364;52.426;9.424;2023-01-24T07:24:16;103497.22;;;1.01;87.95
8653;BME280;4364;52.426;9.424;2023-01-24T07:26:43;103504.69;;;1.07;87.71
8653;BME280;4364;52.426;9.424;2023-01-24T07:29:10;103500.75;;;1.01;87.69
8653;BME280;4364;52.426;9.424;2023-01-24T07:31:38;103495.09;;;1.04;88.11
8653;BME280;4364;52.426;9.424;2023-01-24T07:34:04;103499.84;;;1.20;86.85
8653;BME280;4364;52.426;9.424;2023-01-24T07:36:31;103514.16;;;1.01;87.08
8653;BME280;4364;52.426;9.424;2023-01-24T07:38:58;103500.75;;;1.01;87.42
8653;BME280;4364;52.426;9.424;2023-01-24T07:41:24;103514.56;;;0.97;87.42
8653;BME280;4364;52.426;9.424;2023-01-24T07:43:52;103503.13;;;1.14;87.26
8653;BME280;4364;52.426;9.424;2023-01-24T07:46:20;103513.19;;;1.02;87.39
8653;BME280;4364;52.426;9.424;2023-01-24T07:48:46;103511.59;;;1.09;86.70
8653;BME280;4364;52.426;9.424;2023-01-24T07:51:13;103524.31;;;0.98;87.13
8653;BME280;4364;52.426;9.424;2023-01-24T07:53:39;103518.97;;;0.98;87.70
8653;BME280;4364;52.426;9.424;2023-01-24T07:56:06;103526.56;;;1.02;88.21
8653;BME280;4364;52.426;9.424;2023-01-24T07:58:40;103525.13;;;1.08;87.18
8653;BME280;4364;52.426;9.424;2023-01-24T08:01:06;103523.63;;;0.96;86.89
8653;BME280;4364;52.426;9.424;2023-01-24T08:03:33;103525.56;;;0.93;87.63
8653;BME280;4364;52.426;9.424;2023-01-24T08:06:00;103528.25;;;0.93;87.58
8653;BME280;4364;52.426;9.424;2023-01-24T08:08:27;103527.56;;;1.01;86.92
8653;BME280;4364;52.426;9.424;2023-01-24T08:10:54;103532.91;;;0.91;87.20
8653;BME280;4364;52.426;9.424;2023-01-24T08:13:20;103533.06;;;0.90;87.44
8653;BME280;4364;52.426;9.424;2023-01-24T08:15:48;103527.69;;;0.90;87.30
8653;BME280;4364;52.426;9.424;2023-01-24T08:18:15;103537.03;;;0.86;87.58
8653;BME280;4364;52.426;9.424;2023-01-24T08:20:41;103534.91;;;0.80;88.70
8653;BME280;4364;52.426;9.424;2023-01-24T08:23:08;103531.22;;;1.00;87.80
8653;BME280;4364;52.426;9.424;2023-01-24T08:25:34;103542.66;;;0.92;87.06
8653;BME280;4364;52.426;9.424;2023-01-24T08:28:01;103545.63;;;0.99;86.89
8653;BME280;4364;52.426;9.424;2023-01-24T08:30:29;103553.66;;;0.89;86.76
8653;BME280;4364;52.426;9.424;2023-01-24T08:33:03;103548.44;;;0.78;87.55
8653;BME280;4364;52.426;9.424;2023-01-24T08:35:32;103550.16;;;0.89;87.32
8653;BME280;4364;52.426;9.424;2023-01-24T08:37:59;103558.72;;;1.02;86.85
8653;BME280;4364;52.426;9.424;2023-01-24T08:40:27;103555.50;;;0.89;86.96
8653;BME280;4364;52.426;9.424;2023-01-24T08:43:03;103559.00;;;0.89;87.86
8653;BME280;4364;52.426;9.424;2023-01-24T08:45:30;103557.19;;;0.80;87.94
8653;BME280;4364;52.426;9.424;2023-01-24T08:47:56;103551.69;;;0.91;87.69
8653;BME280;4364;52.426;9.424;2023-01-24T08:50:23;103557.44;;;0.87;87.85
8653;BME280;4364;52.426;9.424;2023-01-24T08:52:53;103557.59;;;0.95;88.24
8653;BME280;4364;52.426;9.424;2023-01-24T08:55:20;103555.03;;;1.03;87.04
8653;BME280;4364;52.426;9.424;2023-01-24T08:57:47;103562.38;;;0.91;87.52
8653;BME280;4364;52.426;9.424;2023-01-24T09:00:14;103555.91;;;0.94;87.71
8653;BME280;4364;52.426;9.424;2023-01-24T09:02:41;103558.19;;;0.89;88.26
8653;BME280;4364;52.426;9.424;2023-01-24T09:05:08;103557.72;;;0.93;88.31
8653;BME280;4364;52.426;9.424;2023-01-24T09:07:35;103561.53;;;1.10;86.54
8653;BME280;4364;52.426;9.424;2023-01-24T09:10:03;103556.75;;;0.95;86.82
8653;BME280;4364;52.426;9.424;2023-01-24T09:12:31;103567.75;;;0.91;87.37
8653;BME280;4364;52.426;9.424;2023-01-24T09:14:58;103573.09;;;0.91;87.69
8653;BME280;4364;52.426;9.424;2023-01-24T09:17:25;103567.06;;;0.89;88.53
8653;BME280;4364;52.426;9.424;2023-01-24T09:19:51;103564.94;;;1.03;87.62
8653;BME280;4364;52.426;9.424;2023-01-24T09:22:18;103573.53;;;1.06;86.92
8653;BME280;4364;52.426;9.424;2023-01-24T09:24:46;103570.16;;;1.04;87.08
8653;BME280;4364;52.426;9.424;2023-01-24T09:27:12;103565.22;;;1.00;87.76
8653;BME280;4364;52.426;9.424;2023-01-24T09:29:39;103568.31;;;0.95;88.05
8653;BME280;4364;52.426;9.424;2023-01-24T09:32:06;103566.63;;;0.94;87.61
8653;BME280;4364;52.426;9.424;2023-01-24T09:34:32;103572.00;;;0.94;88.22
8653;BME280;4364;52.426;9.424;2023-01-24T09:36:59;103573.53;;;0.97;88.32
8653;BME280;4364;52.426;9.424;2023-01-24T09:39:26;103570.28;;;1.03;88.20
8653;BME280;4364;52.426;9.424;2023-01-24T09:42:05;103576.47;;;1.03;88.47
8653;BME280;4364;52.426;9.424;2023-01-24T09:44:46;103570.44;;;1.01;88.61
8653;BME280;4364;52.426;9.424;2023-01-24T09:48:05;103585.81;;;0.99;87.30
8653;BME280;4364;52.426;9.424;2023-01-24T09:52:59;103582.13;;;1.00;88.20
8653;BME280;4364;52.426;9.424;2023-01-24T09:55:34;103586.50;;;1.01;88.15
8653;BME280;4364;52.426;9.424;2023-01-24T09:58:29;103583.53;;;1.04;87.86
8653;BME280;4364;52.426;9.424;2023-01-24T10:01:09;103584.25;;;0.97;88.43
8653;BME280;4364;52.426;9.424;2023-01-24T10:03:37;103579.44;;;1.10;87.01
8653;BME280;4364;52.426;9.424;2023-01-24T10:06:25;103583.28;;;0.98;87.33
8653;BME280;4364;52.426;9.424;2023-01-24T10:09:09;103580.59;;;0.98;86.54
8653;BME280;4364;52.426;9.424;2023-01-24T10:11:51;103574.53;;;0.86;87.85
8653;BME280;4364;52.426;9.424;2023-01-24T10:14:34;103575.94;;;0.90;88.38
8653;BME280;4364;52.426;9.424;2023-01-24T10:24:57;103564.94;;;1.03;88.54
8653;BME280;4364;52.426;9.424;2023-01-24T10:27:31;103563.53;;;0.99;88.36
8653;BME280;4364;52.426;9.424;2023-01-24T10:30:21;103560.28;;;0.95;88.02
8653;BME280;4364;52.426;9.424;2023-01-24T10:32:52;103561.84;;;0.98;87.42
8653;BME280;4364;52.426;9.424;2023-01-24T10:35:26;103560.69;;;1.00;87.24
8653;BME280;4364;52.426;9.424;2023-01-24T10:37:57;103559.84;;;0.90;86.84
8653;BME280;4364;52.426;9.424;2023-01-24T10:40:25;103558.47;;;0.96;86.08
8653;BME280;4364;52.426;9.424;2023-01-24T10:42:51;103560.44;;;0.84;86.96
8653;BME280;4364;52.426;9.424;2023-01-24T10:45:29;103561.00;;;0.87;87.50
8653;BME280;4364;52.426;9.424;2023-01-24T10:50:49;103563.69;;;0.97;86.34
8653;BME280;4364;52.426;9.424;2023-01-24T10:53:26;103554.91;;;0.95;86.95
8653;BME280;4364;52.426;9.424;2023-01-24T10:55:59;103555.38;;;0.90;86.64
8653;BME280;4364;52.426;9.424;2023-01-24T10:58:35;103544.91;;;0.97;87.21
8653;BME280;4364;52.426;9.424;2023-01-24T11:01:18;103544.44;;;1.11;86.27
8653;BME280;4364;52.426;9.424;2023-01-24T11:03:48;103537.69;;;1.07;85.41
8653;BME280;4364;52.426;9.424;2023-01-24T11:06:36;103541.22;;;1.08;85.29
8653;BME280;4364;52.426;9.424;2023-01-24T11:09:09;103548.41;;;1.17;85.17
8653;BME280;4364;52.426;9.424;2023-01-24T11:11:42;103539.50;;;1.17;84.91
8653;BME280;4364;52.426;9.424;2023-01-24T11:14:13;103543.59;;;1.21;85.28
8653;BME280;4364;52.426;9.424;2023-01-24T11:16:44;103534.59;;;1.12;86.16
8653;BME280;4364;52.426;9.424;2023-01-24T11:21:57;103543.06;;;1.07;86.18
8653;BME280;4364;52.426;9.424;2023-01-24T11:24:25;103546.88;;;1.05;85.70
8653;BME280;4364;52.426;9.424;2023-01-24T11:29:24;103531.34;;;1.08;85.61
8653;BME280;4364;52.426;9.424;2023-01-24T11:31:53;103533.47;;;1.05;85.43
8653;BME280;4364;52.426;9.424;2023-01-24T11:34:29;103534.75;;;1.10;84.86
8653;BME280;4364;52.426;9.424;2023-01-24T11:37:18;103535.69;;;1.29;85.04
8653;BME280;4364;52.426;9.424;2023-01-24T11:51:26;103510.94;;;1.35;82.85
8653;BME280;4364;52.426;9.424;2023-01-24T11:56:45;103505.78;;;1.24;82.76
8653;BME280;4364;52.426;9.424;2023-01-24T11:59:21;103494.03;;;1.35;83.19
8653;BME280;4364;52.426;9.424;2023-01-24T12:02:03;103493.88;;;1.36;82.85
8653;BME280;4364;52.426;9.424;2023-01-24T12:04:39;103484.38;;;1.42;82.15
8653;BME280;4364;52.426;9.424;2023-01-24T12:07:23;103490.25;;;1.55;80.92
8653;BME280;4364;52.426;9.424;2023-01-24T12:10:04;103483.84;;;1.38;81.83
8653;BME280;4364;52.426;9.424;2023-01-24T12:12:44;103473.53;;;1.43;81.46
8653;BME280;4364;52.426;9.424;2023-01-24T12:15:27;103469.78;;;1.64;80.18
8653;BME280;4364;52.426;9.424;2023-01-24T12:20:57;103467.44;;;1.51;79.69
8653;BME280;4364;52.426;9.424;2023-01-24T12:23:49;103454.69;;;1.53;79.51
8653;BME280;4364;52.426;9.424;2023-01-24T12:29:15;103457.69;;;1.50;79.84
8653;BME280;4364;52.426;9.424;2023-01-24T12:31:47;103458.16;;;1.45;79.51
8653;BME280;4364;52.426;9.424;2023-01-24T12:34:37;103438.47;;;1.55;79.27
8653;BME280;4364;52.426;9.424;2023-01-24T12:37:26;103439.28;;;1.55;79.88
8653;BME280;4364;52.426;9.424;2023-01-24T12:45:34;103441.38;;;1.61;80.49
8653;BME280;4364;52.426;9.424;2023-01-24T12:48:14;103436.47;;;1.57;79.69
8653;BME280;4364;52.426;9.424;2023-01-24T12:50:57;103431.28;;;1.73;79.16
8653;BME280;4364;52.426;9.424;2023-01-24T12:53:33;103437.50;;;1.74;78.68
8653;BME280;4364;52.426;9.424;2023-01-24T12:56:12;103436.50;;;1.75;79.05
8653;BME280;4364;52.426;9.424;2023-01-24T12:58:43;103431.69;;;1.78;77.55
8653;BME280;4364;52.426;9.424;2023-01-24T13:04:14;103427.25;;;1.69;78.28
8653;BME280;4364;52.426;9.424;2023-01-24T13:09:23;103436.81;;;1.72;77.83
8653;BME280;4364;52.426;9.424;2023-01-24T13:11:54;103438.13;;;1.67;78.15
8653;BME280;4364;52.426;9.424;2023-01-24T13:14:25;103439.50;;;1.72;78.05
8653;BME280;4364;52.426;9.424;2023-01-24T13:17:15;103442.72;;;1.75;78.58
8653;BME280;4364;52.426;9.424;2023-01-24T13:27:40;103459.47;;;1.59;78.10
8653;BME280;4364;52.426;9.424;2023-01-24T13:30:26;103459.53;;;1.50;77.81
8653;BME280;4364;52.426;9.424;2023-01-24T13:32:58;103445.13;;;1.51;77.86
8653;BME280;4364;52.426;9.424;2023-01-24T13:35:31;103448.50;;;1.53;78.09
8653;BME280;4364;52.426;9.424;2023-01-24T13:38:04;103453.31;;;1.49;77.30
8653;BME280;4364;52.426;9.424;2023-01-24T13:40:32;103454.31;;;1.48;78.40
8653;BME280;4364;52.426;9.424;2023-01-24T13:43:03;103452.22;;;1.42;78.93
8653;BME280;4364;52.426;9.424;2023-01-24T13:51:30;103451.81;;;1.37;79.24
8653;BME280;4364;52.426;9.424;2023-01-24T13:54:36;103445.44;;;1.47;80.01
8653;BME280;4364;52.426;9.424;2023-01-24T13:57:16;103447.00;;;1.40;78.98
8653;BME280;4364;52.426;9.424;2023-01-24T14:02:56;103444.50;;;1.57;78.11
8653;BME280;4364;52.426;9.424;2023-01-24T14:18:57;103452.22;;;1.42;79.08
8653;BME280;4364;52.426;9.424;2023-01-24T14:21:31;103451.34;;;1.51;79.35
8653;BME280;4364;52.426;9.424;2023-01-24T14:24:06;103453.63;;;1.46;79.04
8653;BME280;4364;52.426;9.424;2023-01-24T14:26:44;103467.75;;;1.38;79.41
8653;BME280;4364;52.426;9.424;2023-01-24T14:29:22;103455.78;;;1.33;79.33
8653;BME280;4364;52.426;9.424;2023-01-24T14:31:52;103455.09;;;1.31;79.56
8653;BME280;4364;52.426;9.424;2023-01-24T14:34:26;103461.69;;;1.36;79.61
8653;BME280;4364;52.426;9.424;2023-01-24T14:37:02;103463.69;;;1.34;79.97
8653;BME280;4364;52.426;9.424;2023-01-24T14:39:30;103454.75;;;1.43;79.31
8653;BME280;4364;52.426;9.424;2023-01-24T14:41:59;103452.56;;;1.29;80.03
8653;BME280;4364;52.426;9.424;2023-01-24T14:44:32;103450.56;;;1.31;80.03
8653;BME280;4364;52.426;9.424;2023-01-24T14:47:02;103453.44;;;1.20;80.49
8653;BME280;4364;52.426;9.424;2023-01-24T14:49:43;103457.56;;;1.14;80.74
8653;BME280;4364;52.426;9.424;2023-01-24T14:52:18;103450.56;;;1.31;80.48
8653;BME280;4364;52.426;9.424;2023-01-24T14:54:57;103446.22;;;1.20;80.47
8653;BME280;4364;52.426;9.424;2023-01-24T14:57:31;103446.09;;;1.22;81.23
8653;BME280;4364;52.426;9.424;2023-01-24T15:02:25;103433.94;;;1.27;80.87
8653;BME280;4364;52.426;9.424;2023-01-24T15:04:51;103436.88;;;1.34;81.17
8653;BME280;4364;52.426;9.424;2023-01-24T15:07:18;103441.13;;;1.27;81.22
8653;BME280;4364;52.426;9.424;2023-01-24T15:09:44;103433.28;;;1.16;81.57
8653;BME280;4364;52.426;9.424;2023-01-24T15:12:25;103438.75;;;1.24;81.75
8653;BME280;4364;52.426;9.424;2023-01-24T15:14:53;103437.78;;;1.15;82.08
8653;BME280;4364;52.426;9.424;2023-01-24T15:17:23;103432.53;;;1.23;82.66